Terminal Aerodrome Forecast
Issued by NWS Topeka, KS

Home | Current Version | Previous Version | Graphics & Text | Print | Product List | Glossary On
Versions: 1 2 3 4 5 6 7 8 9 10 11 12 13 14 15 16 17 18 19 20 21 22 23 24 25
698
FTUS43 KTOP 270406 AAC
TAFTOP
TAF AMD
KTOP 270406Z 2704/2724 03006KT 3SM SHRA BR SCT014 OVC035
      TEMPO 2704/2706 2SM SHRA BKN012
     FM270800 02008KT 6SM -RA BR OVC009
      TEMPO 2709/2712 4SM RA SCT009 OVC013
     FM271600 36009KT P6SM OVC015
     FM272200 36008KT P6SM BKN035=

USA.gov is the U.S. government's official web portal to all federal, state and local government web resources and services.